sensor_id;sensor_type;location;lat;lon;timestamp;P1;durP1;ratioP1;P2;durP2;ratioP2
38037;SDS011;23843;51.320;12.340;2023-04-16T00:02:12;1.90;;;1.73;;
38037;SDS011;23843;51.320;12.340;2023-04-16T00:04:38;1.37;;;1.27;;
38037;SDS011;23843;51.320;12.340;2023-04-16T00:07:03;1.90;;;1.70;;
38037;SDS011;23843;51.320;12.340;2023-04-16T00:09:29;2.40;;;2.13;;
38037;SDS011;23843;51.320;12.340;2023-04-16T00:11:54;2.17;;;1.97;;
38037;SDS011;23843;51.320;12.340;2023-04-16T00:14:20;1.37;;;1.27;;
38037;SDS011;23843;51.320;12.340;2023-04-16T00:16:46;1.20;;;1.10;;
38037;SDS011;23843;51.320;12.340;2023-04-16T00:19:12;0.90;;;0.90;;
38037;SDS011;23843;51.320;12.340;2023-04-16T00:21:38;1.20;;;1.10;;
38037;SDS011;23843;51.320;12.340;2023-04-16T00:24:03;1.20;;;1.10;;
38037;SDS011;23843;51.320;12.340;2023-04-16T00:26:29;1.30;;;1.20;;
38037;SDS011;23843;51.320;12.340;2023-04-16T00:28:54;1.53;;;1.43;;
38037;SDS011;23843;51.320;12.340;2023-04-16T00:31:25;1.43;;;1.33;;
38037;SDS011;23843;51.320;12.340;2023-04-16T00:33:51;1.50;;;1.30;;
38037;SDS011;23843;51.320;12.340;2023-04-16T00:36:18;1.20;;;1.10;;
38037;SDS011;23843;51.320;12.340;2023-04-16T00:38:44;1.30;;;1.13;;
38037;SDS011;23843;51.320;12.340;2023-04-16T00:41:09;1.80;;;1.70;;
38037;SDS011;23843;51.320;12.340;2023-04-16T00:43:35;1.60;;;1.50;;
38037;SDS011;23843;51.320;12.340;2023-04-16T00:46:00;1.50;;;1.40;;
38037;SDS011;23843;51.320;12.340;2023-04-16T00:48:29;1.60;;;1.50;;
38037;SDS011;23843;51.320;12.340;2023-04-16T00:50:55;1.40;;;1.30;;
38037;SDS011;23843;51.320;12.340;2023-04-16T00:53:22;1.90;;;1.50;;
38037;SDS011;23843;51.320;12.340;2023-04-16T00:55:47;1.30;;;1.20;;
38037;SDS011;23843;51.320;12.340;2023-04-16T00:58:13;1.30;;;1.20;;
38037;SDS011;23843;51.320;12.340;2023-04-16T01:00:38;1.30;;;1.20;;
38037;SDS011;23843;51.320;12.340;2023-04-16T01:03:04;1.40;;;1.30;;
38037;SDS011;23843;51.320;12.340;2023-04-16T01:05:29;1.13;;;1.03;;
38037;SDS011;23843;51.320;12.340;2023-04-16T01:07:57;1.10;;;1.00;;
38037;SDS011;23843;51.320;12.340;2023-04-16T01:10:24;1.23;;;1.13;;
38037;SDS011;23843;51.320;12.340;2023-04-16T01:12:49;1.30;;;1.20;;
38037;SDS011;23843;51.320;12.340;2023-04-16T01:15:14;1.20;;;1.10;;
38037;SDS011;23843;51.320;12.340;2023-04-16T01:17:40;0.90;;;0.90;;
38037;SDS011;23843;51.320;12.340;2023-04-16T01:20:06;1.60;;;1.50;;
38037;SDS011;23843;51.320;12.340;2023-04-16T01:22:33;1.50;;;1.40;;
38037;SDS011;23843;51.320;12.340;2023-04-16T01:24:58;1.37;;;1.20;;
38037;SDS011;23843;51.320;12.340;2023-04-16T01:27:24;1.17;;;1.07;;
38037;SDS011;23843;51.320;12.340;2023-04-16T01:29:49;1.17;;;1.07;;
38037;SDS011;23843;51.320;12.340;2023-04-16T01:32:15;1.13;;;1.03;;
38037;SDS011;23843;51.320;12.340;2023-04-16T01:34:40;1.00;;;0.90;;
38037;SDS011;23843;51.320;12.340;2023-04-16T01:37:06;1.57;;;1.30;;
38037;SDS011;23843;51.320;12.340;2023-04-16T01:39:32;1.20;;;1.10;;
38037;SDS011;23843;51.320;12.340;2023-04-16T01:41:58;1.10;;;1.00;;
38037;SDS011;23843;51.320;12.340;2023-04-16T01:44:23;1.40;;;1.30;;
38037;SDS011;23843;51.320;12.340;2023-04-16T01:46:49;2.00;;;1.80;;
38037;SDS011;23843;51.320;12.340;2023-04-16T01:49:15;2.30;;;2.00;;
38037;SDS011;23843;51.320;12.340;2023-04-16T01:51:40;2.10;;;1.90;;
38037;SDS011;23843;51.320;12.340;2023-04-16T01:54:06;2.00;;;1.80;;
38037;SDS011;23843;51.320;12.340;2023-04-16T01:56:33;1.83;;;1.70;;
38037;SDS011;23843;51.320;12.340;2023-04-16T01:58:58;2.00;;;1.63;;
38037;SDS011;23843;51.320;12.340;2023-04-16T02:01:24;1.40;;;1.30;;
38037;SDS011;23843;51.320;12.340;2023-04-16T02:03:50;1.47;;;1.33;;
38037;SDS011;23843;51.320;12.340;2023-04-16T02:06:16;1.63;;;1.33;;
38037;SDS011;23843;51.320;12.340;2023-04-16T02:08:41;1.50;;;1.40;;
38037;SDS011;23843;51.320;12.340;2023-04-16T02:11:07;1.60;;;1.50;;
38037;SDS011;23843;51.320;12.340;2023-04-16T02:13:34;1.20;;;1.10;;
38037;SDS011;23843;51.320;12.340;2023-04-16T02:15:59;1.20;;;1.10;;
38037;SDS011;23843;51.320;12.340;2023-04-16T02:18:24;1.10;;;1.00;;
38037;SDS011;23843;51.320;12.340;2023-04-16T02:20:50;1.00;;;0.90;;
38037;SDS011;23843;51.320;12.340;2023-04-16T02:23:15;1.13;;;1.03;;
38037;SDS011;23843;51.320;12.340;2023-04-16T02:25:41;1.57;;;1.43;;
38037;SDS011;23843;51.320;12.340;2023-04-16T02:28:08;1.30;;;1.20;;
38037;SDS011;23843;51.320;12.340;2023-04-16T02:30:35;1.20;;;1.10;;
38037;SDS011;23843;51.320;12.340;2023-04-16T02:33:02;1.20;;;1.10;;
38037;SDS011;23843;51.320;12.340;2023-04-16T02:35:27;1.10;;;1.00;;
38037;SDS011;23843;51.320;12.340;2023-04-16T02:37:53;0.80;;;0.80;;
38037;SDS011;23843;51.320;12.340;2023-04-16T02:40:18;1.17;;;1.07;;
38037;SDS011;23843;51.320;12.340;2023-04-16T02:42:44;1.20;;;1.10;;
38037;SDS011;23843;51.320;12.340;2023-04-16T02:45:09;1.13;;;1.03;;
38037;SDS011;23843;51.320;12.340;2023-04-16T02:47:37;1.43;;;1.33;;
38037;SDS011;23843;51.320;12.340;2023-04-16T02:50:02;1.40;;;1.10;;
38037;SDS011;23843;51.320;12.340;2023-04-16T02:52:28;1.10;;;1.00;;
38037;SDS011;23843;51.320;12.340;2023-04-16T02:54:53;1.07;;;0.97;;
38037;SDS011;23843;51.320;12.340;2023-04-16T02:57:19;1.00;;;0.90;;
38037;SDS011;23843;51.320;12.340;2023-04-16T02:59:44;0.80;;;0.80;;
38037;SDS011;23843;51.320;12.340;2023-04-16T03:02:10;1.00;;;0.93;;
38037;SDS011;23843;51.320;12.340;2023-04-16T03:04:37;1.00;;;0.90;;
38037;SDS011;23843;51.320;12.340;2023-04-16T03:07:02;0.87;;;0.87;;
38037;SDS011;23843;51.320;12.340;2023-04-16T03:09:27;1.20;;;1.07;;
38037;SDS011;23843;51.320;12.340;2023-04-16T03:11:53;1.10;;;1.00;;
38037;SDS011;23843;51.320;12.340;2023-04-16T03:14:18;1.10;;;1.00;;
38037;SDS011;23843;51.320;12.340;2023-04-16T03:16:44;0.83;;;0.83;;
38037;SDS011;23843;51.320;12.340;2023-04-16T03:19:09;0.70;;;0.70;;
38037;SDS011;23843;51.320;12.340;2023-04-16T03:21:36;1.07;;;0.97;;
38037;SDS011;23843;51.320;12.340;2023-04-16T03:24:02;1.17;;;1.07;;
38037;SDS011;23843;51.320;12.340;2023-04-16T03:26:27;1.00;;;0.90;;
38037;SDS011;23843;51.320;12.340;2023-04-16T03:28:53;1.20;;;1.10;;
38037;SDS011;23843;51.320;12.340;2023-04-16T03:31:18;1.10;;;1.00;;
38037;SDS011;23843;51.320;12.340;2023-04-16T03:33:43;1.23;;;1.07;;
38037;SDS011;23843;51.320;12.340;2023-04-16T03:36:09;0.87;;;0.83;;
38037;SDS011;23843;51.320;12.340;2023-04-16T03:38:36;0.80;;;0.80;;
38037;SDS011;23843;51.320;12.340;2023-04-16T03:41:01;0.73;;;0.73;;
38037;SDS011;23843;51.320;12.340;2023-04-16T03:43:27;0.77;;;0.77;;
38037;SDS011;23843;51.320;12.340;2023-04-16T03:45:52;1.07;;;0.97;;
38037;SDS011;23843;51.320;12.340;2023-04-16T03:48:17;1.20;;;1.10;;
38037;SDS011;23843;51.320;12.340;2023-04-16T03:50:44;1.30;;;1.20;;
38037;SDS011;23843;51.320;12.340;2023-04-16T03:53:09;1.20;;;1.10;;
38037;SDS011;23843;51.320;12.340;2023-04-16T03:55:36;1.10;;;1.00;;
38037;SDS011;23843;51.320;12.340;2023-04-16T03:58:02;1.20;;;1.10;;
38037;SDS011;23843;51.320;12.340;2023-04-16T04:00:27;1.30;;;1.20;;
38037;SDS011;23843;51.320;12.340;2023-04-16T04:02:53;2.00;;;1.80;;
38037;SDS011;23843;51.320;12.340;2023-04-16T04:05:18;1.47;;;1.37;;
38037;SDS011;23843;51.320;12.340;2023-04-16T04:07:44;0.93;;;0.93;;
38037;SDS011;23843;51.320;12.340;2023-04-16T04:10:09;1.43;;;1.33;;
38037;SDS011;23843;51.320;12.340;2023-04-16T04:12:36;1.10;;;1.00;;
38037;SDS011;23843;51.320;12.340;2023-04-16T04:15:02;1.30;;;1.20;;
38037;SDS011;23843;51.320;12.340;2023-04-16T04:17:27;0.90;;;0.80;;
38037;SDS011;23843;51.320;12.340;2023-04-16T04:19:53;0.87;;;0.80;;
38037;SDS011;23843;51.320;12.340;2023-04-16T04:22:20;0.60;;;0.60;;
38037;SDS011;23843;51.320;12.340;2023-04-16T04:24:46;0.70;;;0.70;;
38037;SDS011;23843;51.320;12.340;2023-04-16T04:27:11;1.03;;;0.93;;
38037;SDS011;23843;51.320;12.340;2023-04-16T04:29:38;1.10;;;1.00;;
38037;SDS011;23843;51.320;12.340;2023-04-16T04:32:03;1.20;;;1.00;;
38037;SDS011;23843;51.320;12.340;2023-04-16T04:34:29;0.83;;;0.83;;
38037;SDS011;23843;51.320;12.340;2023-04-16T04:36:54;0.90;;;0.80;;
38037;SDS011;23843;51.320;12.340;2023-04-16T04:39:20;1.00;;;0.90;;
38037;SDS011;23843;51.320;12.340;2023-04-16T04:41:45;1.10;;;1.00;;
38037;SDS011;23843;51.320;12.340;2023-04-16T04:44:11;1.30;;;1.20;;
38037;SDS011;23843;51.320;12.340;2023-04-16T04:46:38;1.30;;;1.20;;
38037;SDS011;23843;51.320;12.340;2023-04-16T04:49:03;1.30;;;1.20;;
38037;SDS011;23843;51.320;12.340;2023-04-16T04:51:29;1.33;;;1.23;;
38037;SDS011;23843;51.320;12.340;2023-04-16T04:53:54;1.50;;;1.40;;
38037;SDS011;23843;51.320;12.340;2023-04-16T04:56:20;1.67;;;1.57;;
38037;SDS011;23843;51.320;12.340;2023-04-16T04:58:45;1.37;;;1.27;;
38037;SDS011;23843;51.320;12.340;2023-04-16T05:01:10;1.33;;;1.23;;
38037;SDS011;23843;51.320;12.340;2023-04-16T05:03:37;2.23;;;1.90;;
38037;SDS011;23843;51.320;12.340;2023-04-16T05:06:03;1.50;;;1.40;;
38037;SDS011;23843;51.320;12.340;2023-04-16T05:08:28;2.00;;;1.80;;
38037;SDS011;23843;51.320;12.340;2023-04-16T05:10:54;2.03;;;1.83;;
38037;SDS011;23843;51.320;12.340;2023-04-16T05:13:19;1.80;;;1.57;;
38037;SDS011;23843;51.320;12.340;2023-04-16T05:15:45;1.30;;;1.20;;
38037;SDS011;23843;51.320;12.340;2023-04-16T05:18:10;1.20;;;1.10;;
38037;SDS011;23843;51.320;12.340;2023-04-16T05:20:37;0.90;;;0.90;;
38037;SDS011;23843;51.320;12.340;2023-04-16T05:23:03;0.80;;;0.80;;
38037;SDS011;23843;51.320;12.340;2023-04-16T05:25:28;0.70;;;0.70;;
38037;SDS011;23843;51.320;12.340;2023-04-16T05:27:54;0.73;;;0.73;;
38037;SDS011;23843;51.320;12.340;2023-04-16T05:30:19;0.60;;;0.60;;
38037;SDS011;23843;51.320;12.340;2023-04-16T05:32:44;0.70;;;0.70;;
38037;SDS011;23843;51.320;12.340;2023-04-16T05:35:10;0.70;;;0.70;;
38037;SDS011;23843;51.320;12.340;2023-04-16T05:37:37;0.70;;;0.70;;
38037;SDS011;23843;51.320;12.340;2023-04-16T05:40:02;0.83;;;0.83;;
38037;SDS011;23843;51.320;12.340;2023-04-16T05:42:28;0.60;;;0.60;;
38037;SDS011;23843;51.320;12.340;2023-04-16T05:44:54;1.00;;;0.90;;
38037;SDS011;23843;51.320;12.340;2023-04-16T05:47:19;0.70;;;0.70;;
38037;SDS011;23843;51.320;12.340;2023-04-16T05:49:45;0.67;;;0.67;;
38037;SDS011;23843;51.320;12.340;2023-04-16T05:52:10;0.63;;;0.63;;
38037;SDS011;23843;51.320;12.340;2023-04-16T05:54:37;0.60;;;0.60;;
38037;SDS011;23843;51.320;12.340;2023-04-16T05:57:02;0.70;;;0.70;;
38037;SDS011;23843;51.320;12.340;2023-04-16T05:59:28;1.10;;;1.00;;
38037;SDS011;23843;51.320;12.340;2023-04-16T06:01:53;0.87;;;0.80;;
38037;SDS011;23843;51.320;12.340;2023-04-16T06:04:19;0.80;;;0.80;;
38037;SDS011;23843;51.320;12.340;2023-04-16T06:06:44;0.60;;;0.60;;
38037;SDS011;23843;51.320;12.340;2023-04-16T06:09:10;0.93;;;0.70;;
38037;SDS011;23843;51.320;12.340;2023-04-16T06:11:36;0.70;;;0.70;;
38037;SDS011;23843;51.320;12.340;2023-04-16T06:16:30;0.80;;;0.80;;
38037;SDS011;23843;51.320;12.340;2023-04-16T06:18:55;0.77;;;0.77;;
38037;SDS011;23843;51.320;12.340;2023-04-16T06:21:21;0.93;;;0.83;;
38037;SDS011;23843;51.320;12.340;2023-04-16T06:23:47;1.00;;;0.90;;
38037;SDS011;23843;51.320;12.340;2023-04-16T06:26:12;0.70;;;0.70;;
38037;SDS011;23843;51.320;12.340;2023-04-16T06:28:39;0.87;;;0.87;;
38037;SDS011;23843;51.320;12.340;2023-04-16T06:31:05;1.10;;;1.00;;
38037;SDS011;23843;51.320;12.340;2023-04-16T06:33:31;0.63;;;0.63;;
38037;SDS011;23843;51.320;12.340;2023-04-16T06:35:56;0.50;;;0.50;;
38037;SDS011;23843;51.320;12.340;2023-04-16T06:38:22;0.60;;;0.50;;
38037;SDS011;23843;51.320;12.340;2023-04-16T06:40:47;0.70;;;0.70;;
38037;SDS011;23843;51.320;12.340;2023-04-16T06:43:16;0.60;;;0.60;;
38037;SDS011;23843;51.320;12.340;2023-04-16T06:45:43;0.50;;;0.50;;
38037;SDS011;23843;51.320;12.340;2023-04-16T06:48:08;0.57;;;0.57;;
38037;SDS011;23843;51.320;12.340;2023-04-16T06:50:34;0.70;;;0.70;;
38037;SDS011;23843;51.320;12.340;2023-04-16T06:52:59;0.50;;;0.50;;
38037;SDS011;23843;51.320;12.340;2023-04-16T06:55:25;0.47;;;0.47;;
38037;SDS011;23843;51.320;12.340;2023-04-16T06:57:51;0.50;;;0.50;;
38037;SDS011;23843;51.320;12.340;2023-04-16T07:00:17;0.50;;;0.50;;
38037;SDS011;23843;51.320;12.340;2023-04-16T07:02:44;0.80;;;0.80;;
38037;SDS011;23843;51.320;12.340;2023-04-16T07:05:09;1.33;;;1.17;;
38037;SDS011;23843;51.320;12.340;2023-04-16T07:07:35;1.13;;;1.03;;
38037;SDS011;23843;51.320;12.340;2023-04-16T07:10:01;0.93;;;0.90;;
38037;SDS011;23843;51.320;12.340;2023-04-16T07:12:26;0.63;;;0.63;;
38037;SDS011;23843;51.320;12.340;2023-04-16T07:14:51;0.73;;;0.70;;
38037;SDS011;23843;51.320;12.340;2023-04-16T07:17:17;0.70;;;0.70;;
38037;SDS011;23843;51.320;12.340;2023-04-16T07:19:44;0.73;;;0.70;;
38037;SDS011;23843;51.320;12.340;2023-04-16T07:22:12;0.50;;;0.50;;
38037;SDS011;23843;51.320;12.340;2023-04-16T07:24:46;0.50;;;0.50;;
38037;SDS011;23843;51.320;12.340;2023-04-16T07:27:12;0.60;;;0.60;;
38037;SDS011;23843;51.320;12.340;2023-04-16T07:29:39;0.77;;;0.77;;
38037;SDS011;23843;51.320;12.340;2023-04-16T07:32:16;1.20;;;1.10;;
38037;SDS011;23843;51.320;12.340;2023-04-16T07:34:43;1.03;;;0.97;;
38037;SDS011;23843;51.320;12.340;2023-04-16T07:37:09;1.00;;;0.90;;
38037;SDS011;23843;51.320;12.340;2023-04-16T07:39:34;0.70;;;0.70;;
38037;SDS011;23843;51.320;12.340;2023-04-16T07:42:00;0.60;;;0.60;;
38037;SDS011;23843;51.320;12.340;2023-04-16T07:44:25;0.60;;;0.60;;
38037;SDS011;23843;51.320;12.340;2023-04-16T07:46:51;1.03;;;0.93;;
38037;SDS011;23843;51.320;12.340;2023-04-16T07:49:16;1.00;;;0.90;;
38037;SDS011;23843;51.320;12.340;2023-04-16T07:51:43;0.60;;;0.60;;
38037;SDS011;23843;51.320;12.340;2023-04-16T07:54:09;0.70;;;0.70;;
38037;SDS011;23843;51.320;12.340;2023-04-16T07:56:34;0.70;;;0.70;;
38037;SDS011;23843;51.320;12.340;2023-04-16T07:59:00;0.60;;;0.60;;
38037;SDS011;23843;51.320;12.340;2023-04-16T08:01:27;0.77;;;0.70;;
38037;SDS011;23843;51.320;12.340;2023-04-16T08:03:53;0.73;;;0.70;;
38037;SDS011;23843;51.320;12.340;2023-04-16T08:06:18;1.00;;;0.90;;
38037;SDS011;23843;51.320;12.340;2023-04-16T08:08:45;0.60;;;0.60;;
38037;SDS011;23843;51.320;12.340;2023-04-16T08:11:11;0.47;;;0.47;;
38037;SDS011;23843;51.320;12.340;2023-04-16T08:13:36;0.70;;;0.70;;
38037;SDS011;23843;51.320;12.340;2023-04-16T08:16:02;0.70;;;0.70;;
38037;SDS011;23843;51.320;12.340;2023-04-16T08:18:27;0.60;;;0.60;;
38037;SDS011;23843;51.320;12.340;2023-04-16T08:20:53;0.50;;;0.50;;
38037;SDS011;23843;51.320;12.340;2023-04-16T08:23:18;1.07;;;1.07;;
38037;SDS011;23843;51.320;12.340;2023-04-16T08:25:46;1.37;;;1.10;;
38037;SDS011;23843;51.320;12.340;2023-04-16T08:28:11;1.60;;;1.00;;
38037;SDS011;23843;51.320;12.340;2023-04-16T08:30:39;1.33;;;1.07;;
38037;SDS011;23843;51.320;12.340;2023-04-16T08:33:05;1.00;;;0.90;;
38037;SDS011;23843;51.320;12.340;2023-04-16T08:35:30;0.70;;;0.70;;
38037;SDS011;23843;51.320;12.340;2023-04-16T08:37:56;0.70;;;0.70;;
38037;SDS011;23843;51.320;12.340;2023-04-16T08:40:21;0.90;;;0.90;;
38037;SDS011;23843;51.320;12.340;2023-04-16T08:42:51;0.73;;;0.73;;
38037;SDS011;23843;51.320;12.340;2023-04-16T08:45:18;0.70;;;0.70;;
38037;SDS011;23843;51.320;12.340;2023-04-16T08:47:44;1.00;;;0.90;;
38037;SDS011;23843;51.320;12.340;2023-04-16T08:50:11;0.80;;;0.80;;
38037;SDS011;23843;51.320;12.340;2023-04-16T08:52:39;1.40;;;1.30;;
38037;SDS011;23843;51.320;12.340;2023-04-16T08:55:10;2.53;;;2.00;;
38037;SDS011;23843;51.320;12.340;2023-04-16T08:57:38;2.40;;;2.13;;
38037;SDS011;23843;51.320;12.340;2023-04-16T09:00:10;2.97;;;2.20;;
38037;SDS011;23843;51.320;12.340;2023-04-16T09:02:37;2.07;;;1.87;;
38037;SDS011;23843;51.320;12.340;2023-04-16T09:05:04;2.67;;;2.40;;
38037;SDS011;23843;51.320;12.340;2023-04-16T09:07:33;2.13;;;1.93;;
38037;SDS011;23843;51.320;12.340;2023-04-16T09:10:00;2.27;;;2.07;;
38037;SDS011;23843;51.320;12.340;2023-04-16T09:12:27;1.70;;;1.60;;
38037;SDS011;23843;51.320;12.340;2023-04-16T09:14:54;1.53;;;1.37;;
38037;SDS011;23843;51.320;12.340;2023-04-16T09:17:22;1.40;;;1.30;;
38037;SDS011;23843;51.320;12.340;2023-04-16T09:19:47;1.50;;;1.40;;
38037;SDS011;23843;51.320;12.340;2023-04-16T09:22:15;2.30;;;1.83;;
38037;SDS011;23843;51.320;12.340;2023-04-16T09:24:40;1.93;;;1.73;;
38037;SDS011;23843;51.320;12.340;2023-04-16T09:27:06;2.27;;;1.90;;
38037;SDS011;23843;51.320;12.340;2023-04-16T09:29:32;2.23;;;2.00;;
38037;SDS011;23843;51.320;12.340;2023-04-16T09:32:00;1.67;;;1.50;;
38037;SDS011;23843;51.320;12.340;2023-04-16T09:34:28;2.87;;;2.17;;
38037;SDS011;23843;51.320;12.340;2023-04-16T09:36:53;1.60;;;1.50;;
38037;SDS011;23843;51.320;12.340;2023-04-16T09:39:19;2.47;;;2.00;;
38037;SDS011;23843;51.320;12.340;2023-04-16T09:41:44;1.70;;;1.60;;
38037;SDS011;23843;51.320;12.340;2023-04-16T09:44:09;1.50;;;1.20;;
38037;SDS011;23843;51.320;12.340;2023-04-16T09:46:36;1.43;;;1.30;;
38037;SDS011;23843;51.320;12.340;2023-04-16T09:49:06;1.90;;;1.60;;
38037;SDS011;23843;51.320;12.340;2023-04-16T09:51:36;1.73;;;1.37;;
38037;SDS011;23843;51.320;12.340;2023-04-16T09:54:03;1.37;;;1.20;;
38037;SDS011;23843;51.320;12.340;2023-04-16T09:56:28;1.73;;;1.57;;
38037;SDS011;23843;51.320;12.340;2023-04-16T09:58:58;2.27;;;2.07;;
38037;SDS011;23843;51.320;12.340;2023-04-16T10:01:24;2.10;;;1.73;;
38037;SDS011;23843;51.320;12.340;2023-04-16T10:03:52;1.30;;;1.20;;
38037;SDS011;23843;51.320;12.340;2023-04-16T10:06:19;1.90;;;1.73;;
38037;SDS011;23843;51.320;12.340;2023-04-16T10:08:48;3.30;;;2.20;;
38037;SDS011;23843;51.320;12.340;2023-04-16T10:11:14;1.97;;;1.80;;
38037;SDS011;23843;51.320;12.340;2023-04-16T10:13:40;2.73;;;2.23;;
38037;SDS011;23843;51.320;12.340;2023-04-16T10:16:06;1.73;;;1.50;;
38037;SDS011;23843;51.320;12.340;2023-04-16T10:18:32;1.53;;;1.43;;
38037;SDS011;23843;51.320;12.340;2023-04-16T10:21:00;1.30;;;1.20;;
38037;SDS011;23843;51.320;12.340;2023-04-16T10:23:26;1.10;;;1.00;;
38037;SDS011;23843;51.320;12.340;2023-04-16T10:25:53;1.20;;;1.10;;
38037;SDS011;23843;51.320;12.340;2023-04-16T10:28:19;1.10;;;1.00;;
38037;SDS011;23843;51.320;12.340;2023-04-16T10:30:47;1.53;;;1.43;;
38037;SDS011;23843;51.320;12.340;2023-04-16T10:33:14;1.57;;;1.30;;
38037;SDS011;23843;51.320;12.340;2023-04-16T10:35:40;2.50;;;1.60;;
38037;SDS011;23843;51.320;12.340;2023-04-16T10:38:20;1.87;;;1.40;;
38037;SDS011;23843;51.320;12.340;2023-04-16T10:40:45;2.33;;;1.20;;
38037;SDS011;23843;51.320;12.340;2023-04-16T10:43:15;1.43;;;1.10;;
38037;SDS011;23843;51.320;12.340;2023-04-16T10:45:42;2.13;;;1.20;;
38037;SDS011;23843;51.320;12.340;2023-04-16T10:48:07;1.63;;;1.07;;
38037;SDS011;23843;51.320;12.340;2023-04-16T10:50:33;2.27;;;1.70;;
38037;SDS011;23843;51.320;12.340;2023-04-16T10:53:18;1.73;;;1.53;;
38037;SDS011;23843;51.320;12.340;2023-04-16T10:55:57;1.77;;;1.60;;
38037;SDS011;23843;51.320;12.340;2023-04-16T10:58:35;2.23;;;1.87;;
38037;SDS011;23843;51.320;12.340;2023-04-16T11:01:05;1.63;;;1.30;;
38037;SDS011;23843;51.320;12.340;2023-04-16T11:03:31;2.00;;;1.60;;
38037;SDS011;23843;51.320;12.340;2023-04-16T11:06:08;1.40;;;1.27;;
38037;SDS011;23843;51.320;12.340;2023-04-16T11:08:39;1.83;;;1.40;;
38037;SDS011;23843;51.320;12.340;2023-04-16T11:11:05;2.10;;;1.50;;
38037;SDS011;23843;51.320;12.340;2023-04-16T11:13:31;1.87;;;1.50;;
38037;SDS011;23843;51.320;12.340;2023-04-16T11:15:58;1.10;;;1.00;;
38037;SDS011;23843;51.320;12.340;2023-04-16T11:18:23;1.87;;;1.60;;
38037;SDS011;23843;51.320;12.340;2023-04-16T11:20:50;1.33;;;1.23;;
38037;SDS011;23843;51.320;12.340;2023-04-16T11:23:15;1.30;;;1.20;;
38037;SDS011;23843;51.320;12.340;2023-04-16T11:25:41;3.17;;;2.80;;
38037;SDS011;23843;51.320;12.340;2023-04-16T11:28:06;2.83;;;1.90;;
38037;SDS011;23843;51.320;12.340;2023-04-16T11:30:33;1.90;;;1.70;;
38037;SDS011;23843;51.320;12.340;2023-04-16T11:33:02;1.07;;;0.97;;
38037;SDS011;23843;51.320;12.340;2023-04-16T11:35:28;0.97;;;0.90;;
38037;SDS011;23843;51.320;12.340;2023-04-16T11:37:54;1.53;;;1.20;;
38037;SDS011;23843;51.320;12.340;2023-04-16T11:40:20;1.40;;;1.30;;
38037;SDS011;23843;51.320;12.340;2023-04-16T11:42:46;1.00;;;0.90;;
38037;SDS011;23843;51.320;12.340;2023-04-16T11:45:12;1.10;;;0.97;;
38037;SDS011;23843;51.320;12.340;2023-04-16T11:47:44;1.93;;;1.00;;
38037;SDS011;23843;51.320;12.340;2023-04-16T11:50:16;1.10;;;1.00;;
38037;SDS011;23843;51.320;12.340;2023-04-16T11:52:45;1.37;;;1.00;;
38037;SDS011;23843;51.320;12.340;2023-04-16T11:55:11;1.00;;;0.90;;
38037;SDS011;23843;51.320;12.340;2023-04-16T11:57:37;1.00;;;0.90;;
38037;SDS011;23843;51.320;12.340;2023-04-16T12:00:03;0.83;;;0.83;;
38037;SDS011;23843;51.320;12.340;2023-04-16T12:02:35;0.80;;;0.80;;
38037;SDS011;23843;51.320;12.340;2023-04-16T12:05:02;1.07;;;0.97;;
38037;SDS011;23843;51.320;12.340;2023-04-16T12:07:29;2.43;;;1.90;;
38037;SDS011;23843;51.320;12.340;2023-04-16T12:10:03;2.37;;;2.07;;
38037;SDS011;23843;51.320;12.340;2023-04-16T12:12:30;1.87;;;1.67;;
38037;SDS011;23843;51.320;12.340;2023-04-16T12:14:56;1.60;;;1.50;;
38037;SDS011;23843;51.320;12.340;2023-04-16T12:17:22;1.50;;;1.40;;
38037;SDS011;23843;51.320;12.340;2023-04-16T12:19:48;1.33;;;1.10;;
38037;SDS011;23843;51.320;12.340;2023-04-16T12:22:14;0.90;;;0.90;;
38037;SDS011;23843;51.320;12.340;2023-04-16T12:24:41;1.20;;;1.00;;
38037;SDS011;23843;51.320;12.340;2023-04-16T12:27:07;0.80;;;0.80;;
38037;SDS011;23843;51.320;12.340;2023-04-16T12:29:32;0.77;;;0.70;;
38037;SDS011;23843;51.320;12.340;2023-04-16T12:31:58;0.70;;;0.70;;
38037;SDS011;23843;51.320;12.340;2023-04-16T12:34:23;0.80;;;0.80;;
38037;SDS011;23843;51.320;12.340;2023-04-16T12:37:02;1.07;;;0.90;;
38037;SDS011;23843;51.320;12.340;2023-04-16T12:39:30;1.33;;;1.20;;
38037;SDS011;23843;51.320;12.340;2023-04-16T12:41:57;1.70;;;1.50;;
38037;SDS011;23843;51.320;12.340;2023-04-16T12:44:22;1.43;;;1.30;;
38037;SDS011;23843;51.320;12.340;2023-04-16T12:46:48;1.10;;;1.00;;
38037;SDS011;23843;51.320;12.340;2023-04-16T12:49:13;0.90;;;0.90;;
38037;SDS011;23843;51.320;12.340;2023-04-16T12:51:39;1.07;;;0.90;;
38037;SDS011;23843;51.320;12.340;2023-04-16T12:54:05;0.80;;;0.80;;
38037;SDS011;23843;51.320;12.340;2023-04-16T12:56:31;1.00;;;0.90;;
38037;SDS011;23843;51.320;12.340;2023-04-16T12:58:58;0.93;;;0.90;;
38037;SDS011;23843;51.320;12.340;2023-04-16T13:01:24;0.83;;;0.80;;
38037;SDS011;23843;51.320;12.340;2023-04-16T13:03:49;0.83;;;0.83;;
38037;SDS011;23843;51.320;12.340;2023-04-16T13:06:15;0.80;;;0.70;;
38037;SDS011;23843;51.320;12.340;2023-04-16T13:08:41;0.70;;;0.70;;
38037;SDS011;23843;51.320;12.340;2023-04-16T13:11:11;1.00;;;0.90;;
38037;SDS011;23843;51.320;12.340;2023-04-16T13:13:37;1.10;;;1.00;;
38037;SDS011;23843;51.320;12.340;2023-04-16T13:16:04;1.20;;;1.10;;
38037;SDS011;23843;51.320;12.340;2023-04-16T13:18:29;1.50;;;1.40;;
38037;SDS011;23843;51.320;12.340;2023-04-16T13:20:55;1.40;;;1.30;;
38037;SDS011;23843;51.320;12.340;2023-04-16T13:23:20;1.90;;;1.70;;
38037;SDS011;23843;51.320;12.340;2023-04-16T13:25:46;1.60;;;1.37;;
38037;SDS011;23843;51.320;12.340;2023-04-16T13:28:11;1.60;;;1.50;;
38037;SDS011;23843;51.320;12.340;2023-04-16T13:30:37;1.97;;;1.60;;
38037;SDS011;23843;51.320;12.340;2023-04-16T13:33:04;1.60;;;1.40;;
38037;SDS011;23843;51.320;12.340;2023-04-16T13:35:29;2.00;;;1.80;;
38037;SDS011;23843;51.320;12.340;2023-04-16T13:37:55;1.40;;;1.30;;
38037;SDS011;23843;51.320;12.340;2023-04-16T13:40:20;1.70;;;1.60;;
38037;SDS011;23843;51.320;12.340;2023-04-16T13:42:46;2.40;;;2.20;;
38037;SDS011;23843;51.320;12.340;2023-04-16T13:45:11;2.23;;;2.03;;
38037;SDS011;23843;51.320;12.340;2023-04-16T13:47:37;1.73;;;1.40;;
38037;SDS011;23843;51.320;12.340;2023-04-16T13:50:04;1.40;;;1.30;;
38037;SDS011;23843;51.320;12.340;2023-04-16T13:52:30;1.90;;;1.43;;
38037;SDS011;23843;51.320;12.340;2023-04-16T13:54:56;1.40;;;1.30;;
38037;SDS011;23843;51.320;12.340;2023-04-16T13:57:21;2.33;;;1.93;;
38037;SDS011;23843;51.320;12.340;2023-04-16T13:59:47;1.60;;;1.50;;
38037;SDS011;23843;51.320;12.340;2023-04-16T14:02:12;2.50;;;1.70;;
38037;SDS011;23843;51.320;12.340;2023-04-16T14:04:38;1.60;;;1.50;;
38037;SDS011;23843;51.320;12.340;2023-04-16T14:07:04;2.07;;;1.87;;
38037;SDS011;23843;51.320;12.340;2023-04-16T14:09:30;1.70;;;1.60;;
38037;SDS011;23843;51.320;12.340;2023-04-16T14:11:55;1.43;;;1.33;;
38037;SDS011;23843;51.320;12.340;2023-04-16T14:14:21;1.80;;;1.70;;
38037;SDS011;23843;51.320;12.340;2023-04-16T14:16:46;2.53;;;2.20;;
38037;SDS011;23843;51.320;12.340;2023-04-16T14:19:12;2.13;;;1.80;;
38037;SDS011;23843;51.320;12.340;2023-04-16T14:21:37;2.63;;;2.10;;
38037;SDS011;23843;51.320;12.340;2023-04-16T14:24:05;1.97;;;1.70;;
38037;SDS011;23843;51.320;12.340;2023-04-16T14:26:31;2.03;;;1.70;;
38037;SDS011;23843;51.320;12.340;2023-04-16T14:28:56;2.43;;;2.00;;
38037;SDS011;23843;51.320;12.340;2023-04-16T14:31:22;2.50;;;2.20;;